sensor_id;sensor_type;location;lat;lon;timestamp;temperature;humidity
71563;DHT22;59391;52.504;13.438;2024-02-04T00:01:52;10.70;67.20
71563;DHT22;59391;52.504;13.438;2024-02-04T00:04:17;10.70;67.40
71563;DHT22;59391;52.504;13.438;2024-02-04T00:06:43;10.70;66.50
71563;DHT22;59391;52.504;13.438;2024-02-04T00:09:09;10.60;66.30
71563;DHT22;59391;52.504;13.438;2024-02-04T00:11:34;10.60;65.30
71563;DHT22;59391;52.504;13.438;2024-02-04T00:14:00;10.60;66.20
71563;DHT22;59391;52.504;13.438;2024-02-04T00:16:26;10.50;65.50
71563;DHT22;59391;52.504;13.438;2024-02-04T00:18:51;10.50;67.20
71563;DHT22;59391;52.504;13.438;2024-02-04T00:21:17;10.50;64.30
71563;DHT22;59391;52.504;13.438;2024-02-04T00:23:43;10.40;65.50
71563;DHT22;59391;52.504;13.438;2024-02-04T00:26:08;10.50;66.50
71563;DHT22;59391;52.504;13.438;2024-02-04T00:28:34;10.50;64.60
71563;DHT22;59391;52.504;13.438;2024-02-04T00:31:00;10.40;63.90
71563;DHT22;59391;52.504;13.438;2024-02-04T00:33:25;10.40;63.90
71563;DHT22;59391;52.504;13.438;2024-02-04T00:35:51;10.40;64.10
71563;DHT22;59391;52.504;13.438;2024-02-04T00:38:17;10.30;63.70
71563;DHT22;59391;52.504;13.438;2024-02-04T00:40:42;10.40;65.90
71563;DHT22;59391;52.504;13.438;2024-02-04T00:43:08;10.40;64.80
71563;DHT22;59391;52.504;13.438;2024-02-04T00:45:34;10.40;65.10
71563;DHT22;59391;52.504;13.438;2024-02-04T00:47:59;10.40;64.00
71563;DHT22;59391;52.504;13.438;2024-02-04T00:50:25;10.40;65.40
71563;DHT22;59391;52.504;13.438;2024-02-04T00:52:51;10.30;65.60
71563;DHT22;59391;52.504;13.438;2024-02-04T00:55:19;10.40;64.80
71563;DHT22;59391;52.504;13.438;2024-02-04T00:57:45;10.30;63.30
71563;DHT22;59391;52.504;13.438;2024-02-04T01:00:11;10.20;63.50
71563;DHT22;59391;52.504;13.438;2024-02-04T01:02:38;10.20;63.30
71563;DHT22;59391;52.504;13.438;2024-02-04T01:05:05;10.10;64.40
71563;DHT22;59391;52.504;13.438;2024-02-04T01:07:31;10.10;64.90
71563;DHT22;59391;52.504;13.438;2024-02-04T01:09:56;10.10;64.80
71563;DHT22;59391;52.504;13.438;2024-02-04T01:12:22;10.10;66.00
71563;DHT22;59391;52.504;13.438;2024-02-04T01:14:47;10.10;65.20
71563;DHT22;59391;52.504;13.438;2024-02-04T01:17:13;10.00;63.80
71563;DHT22;59391;52.504;13.438;2024-02-04T01:19:39;10.00;65.00
71563;DHT22;59391;52.504;13.438;2024-02-04T01:22:04;9.90;63.90
71563;DHT22;59391;52.504;13.438;2024-02-04T01:24:31;9.90;63.50
71563;DHT22;59391;52.504;13.438;2024-02-04T01:26:57;9.90;63.30
71563;DHT22;59391;52.504;13.438;2024-02-04T01:29:22;9.80;63.90
71563;DHT22;59391;52.504;13.438;2024-02-04T01:31:48;9.80;65.40
71563;DHT22;59391;52.504;13.438;2024-02-04T01:34:13;9.80;65.30
71563;DHT22;59391;52.504;13.438;2024-02-04T01:36:39;9.80;65.30
71563;DHT22;59391;52.504;13.438;2024-02-04T01:39:05;9.70;65.30
71563;DHT22;59391;52.504;13.438;2024-02-04T01:41:30;9.70;66.70
71563;DHT22;59391;52.504;13.438;2024-02-04T01:43:56;9.70;66.30
71563;DHT22;59391;52.504;13.438;2024-02-04T01:46:22;9.70;65.90
71563;DHT22;59391;52.504;13.438;2024-02-04T01:48:48;9.70;66.70
71563;DHT22;59391;52.504;13.438;2024-02-04T01:51:14;9.70;66.70
71563;DHT22;59391;52.504;13.438;2024-02-04T01:53:44;9.60;66.40
71563;DHT22;59391;52.504;13.438;2024-02-04T01:56:12;9.60;66.30
71563;DHT22;59391;52.504;13.438;2024-02-04T01:58:39;9.70;66.90
71563;DHT22;59391;52.504;13.438;2024-02-04T02:01:05;9.60;67.00
71563;DHT22;59391;52.504;13.438;2024-02-04T02:03:34;9.60;67.70
71563;DHT22;59391;52.504;13.438;2024-02-04T02:06:01;9.60;67.50
71563;DHT22;59391;52.504;13.438;2024-02-04T02:08:26;9.50;67.20
71563;DHT22;59391;52.504;13.438;2024-02-04T02:11:00;9.50;66.90
71563;DHT22;59391;52.504;13.438;2024-02-04T02:13:32;9.50;67.70
71563;DHT22;59391;52.504;13.438;2024-02-04T02:16:15;9.50;67.80
71563;DHT22;59391;52.504;13.438;2024-02-04T02:19:00;9.50;67.70
71563;DHT22;59391;52.504;13.438;2024-02-04T02:21:38;9.40;67.50
71563;DHT22;59391;52.504;13.438;2024-02-04T02:24:34;9.40;67.50
71563;DHT22;59391;52.504;13.438;2024-02-04T02:27:01;9.40;67.90
71563;DHT22;59391;52.504;13.438;2024-02-04T02:29:26;9.40;67.50
71563;DHT22;59391;52.504;13.438;2024-02-04T02:31:52;9.30;68.00
71563;DHT22;59391;52.504;13.438;2024-02-04T02:34:18;9.30;68.50
71563;DHT22;59391;52.504;13.438;2024-02-04T02:36:56;9.30;67.80
71563;DHT22;59391;52.504;13.438;2024-02-04T02:39:33;9.30;68.30
71563;DHT22;59391;52.504;13.438;2024-02-04T02:42:05;9.30;68.10
71563;DHT22;59391;52.504;13.438;2024-02-04T02:44:32;9.30;68.50
71563;DHT22;59391;52.504;13.438;2024-02-04T02:47:00;9.30;68.70
71563;DHT22;59391;52.504;13.438;2024-02-04T02:49:28;9.20;68.10
71563;DHT22;59391;52.504;13.438;2024-02-04T02:51:53;9.20;68.10
71563;DHT22;59391;52.504;13.438;2024-02-04T02:54:19;9.20;68.70
71563;DHT22;59391;52.504;13.438;2024-02-04T02:56:45;9.20;68.20
71563;DHT22;59391;52.504;13.438;2024-02-04T02:59:10;9.20;68.80
71563;DHT22;59391;52.504;13.438;2024-02-04T03:01:39;9.20;68.40
71563;DHT22;59391;52.504;13.438;2024-02-04T03:04:05;9.20;68.30
71563;DHT22;59391;52.504;13.438;2024-02-04T03:06:31;9.20;69.00
71563;DHT22;59391;52.504;13.438;2024-02-04T03:08:57;9.10;68.30
71563;DHT22;59391;52.504;13.438;2024-02-04T03:11:22;9.10;68.70
71563;DHT22;59391;52.504;13.438;2024-02-04T03:13:48;9.10;69.10
71563;DHT22;59391;52.504;13.438;2024-02-04T03:16:13;9.10;69.10
71563;DHT22;59391;52.504;13.438;2024-02-04T03:18:40;9.10;69.30
71563;DHT22;59391;52.504;13.438;2024-02-04T03:21:14;9.20;70.00
71563;DHT22;59391;52.504;13.438;2024-02-04T03:23:41;9.20;69.70
71563;DHT22;59391;52.504;13.438;2024-02-04T03:26:08;9.20;69.70
71563;DHT22;59391;52.504;13.438;2024-02-04T03:28:35;9.30;70.20
71563;DHT22;59391;52.504;13.438;2024-02-04T03:31:00;9.20;70.50
71563;DHT22;59391;52.504;13.438;2024-02-04T03:33:26;9.30;70.00
71563;DHT22;59391;52.504;13.438;2024-02-04T03:35:52;9.20;69.60
71563;DHT22;59391;52.504;13.438;2024-02-04T03:38:17;9.30;70.10
71563;DHT22;59391;52.504;13.438;2024-02-04T03:40:44;9.30;69.60
71563;DHT22;59391;52.504;13.438;2024-02-04T03:43:10;9.30;69.30
71563;DHT22;59391;52.504;13.438;2024-02-04T03:45:36;9.30;69.40
71563;DHT22;59391;52.504;13.438;2024-02-04T03:48:02;9.30;69.50
71563;DHT22;59391;52.504;13.438;2024-02-04T03:50:28;9.40;69.90
71563;DHT22;59391;52.504;13.438;2024-02-04T03:52:53;9.40;69.50
71563;DHT22;59391;52.504;13.438;2024-02-04T03:55:19;9.40;69.50
71563;DHT22;59391;52.504;13.438;2024-02-04T03:57:45;9.40;69.60
71563;DHT22;59391;52.504;13.438;2024-02-04T04:00:11;9.40;69.60
71563;DHT22;59391;52.504;13.438;2024-02-04T04:02:37;9.50;69.50
71563;DHT22;59391;52.504;13.438;2024-02-04T04:05:03;9.40;68.80
71563;DHT22;59391;52.504;13.438;2024-02-04T04:07:30;9.40;68.70
71563;DHT22;59391;52.504;13.438;2024-02-04T04:09:55;9.40;68.60
71563;DHT22;59391;52.504;13.438;2024-02-04T04:12:21;9.50;68.60
71563;DHT22;59391;52.504;13.438;2024-02-04T04:14:47;9.50;68.30
71563;DHT22;59391;52.504;13.438;2024-02-04T04:17:12;9.40;67.40
71563;DHT22;59391;52.504;13.438;2024-02-04T04:19:39;9.40;68.00
71563;DHT22;59391;52.504;13.438;2024-02-04T04:22:05;9.40;67.90
71563;DHT22;59391;52.504;13.438;2024-02-04T04:24:30;9.40;67.70
71563;DHT22;59391;52.504;13.438;2024-02-04T04:26:56;9.40;67.90
71563;DHT22;59391;52.504;13.438;2024-02-04T04:29:21;9.40;67.50
71563;DHT22;59391;52.504;13.438;2024-02-04T04:31:47;9.40;67.40
71563;DHT22;59391;52.504;13.438;2024-02-04T04:34:13;9.30;67.20
71563;DHT22;59391;52.504;13.438;2024-02-04T04:36:39;9.30;67.50
71563;DHT22;59391;52.504;13.438;2024-02-04T04:39:05;9.30;67.20
71563;DHT22;59391;52.504;13.438;2024-02-04T04:41:30;9.30;67.20
71563;DHT22;59391;52.504;13.438;2024-02-04T04:43:56;9.30;67.10
71563;DHT22;59391;52.504;13.438;2024-02-04T04:46:22;9.20;67.10
71563;DHT22;59391;52.504;13.438;2024-02-04T04:48:48;9.20;67.00
71563;DHT22;59391;52.504;13.438;2024-02-04T04:51:13;9.20;67.10
71563;DHT22;59391;52.504;13.438;2024-02-04T04:53:39;9.20;66.90
71563;DHT22;59391;52.504;13.438;2024-02-04T04:56:05;9.20;66.70
71563;DHT22;59391;52.504;13.438;2024-02-04T04:58:31;9.20;66.70
71563;DHT22;59391;52.504;13.438;2024-02-04T05:00:57;9.10;66.60
71563;DHT22;59391;52.504;13.438;2024-02-04T05:03:31;9.10;66.40
71563;DHT22;59391;52.504;13.438;2024-02-04T05:05:57;9.10;66.40
71563;DHT22;59391;52.504;13.438;2024-02-04T05:08:23;9.00;66.40
71563;DHT22;59391;52.504;13.438;2024-02-04T05:10:49;9.00;66.50
71563;DHT22;59391;52.504;13.438;2024-02-04T05:13:15;9.00;66.50
71563;DHT22;59391;52.504;13.438;2024-02-04T05:15:40;9.00;66.40
71563;DHT22;59391;52.504;13.438;2024-02-04T05:18:06;9.00;66.50
71563;DHT22;59391;52.504;13.438;2024-02-04T05:20:31;8.90;66.30
71563;DHT22;59391;52.504;13.438;2024-02-04T05:22:57;8.90;66.50
71563;DHT22;59391;52.504;13.438;2024-02-04T05:25:24;8.90;66.40
71563;DHT22;59391;52.504;13.438;2024-02-04T05:27:50;8.90;66.50
71563;DHT22;59391;52.504;13.438;2024-02-04T05:30:16;9.00;66.40
71563;DHT22;59391;52.504;13.438;2024-02-04T05:32:42;8.90;66.50
71563;DHT22;59391;52.504;13.438;2024-02-04T05:35:12;8.90;66.40
71563;DHT22;59391;52.504;13.438;2024-02-04T05:37:38;8.90;66.40
71563;DHT22;59391;52.504;13.438;2024-02-04T05:40:04;8.90;66.50
71563;DHT22;59391;52.504;13.438;2024-02-04T05:42:30;8.90;66.30
71563;DHT22;59391;52.504;13.438;2024-02-04T05:44:57;8.90;66.20
71563;DHT22;59391;52.504;13.438;2024-02-04T05:47:23;8.90;66.10
71563;DHT22;59391;52.504;13.438;2024-02-04T05:49:49;8.90;66.10
71563;DHT22;59391;52.504;13.438;2024-02-04T05:52:15;8.90;65.90
71563;DHT22;59391;52.504;13.438;2024-02-04T05:54:41;8.90;65.90
71563;DHT22;59391;52.504;13.438;2024-02-04T05:57:07;8.90;65.90
71563;DHT22;59391;52.504;13.438;2024-02-04T05:59:33;8.90;65.90
71563;DHT22;59391;52.504;13.438;2024-02-04T06:01:59;8.90;65.70
71563;DHT22;59391;52.504;13.438;2024-02-04T06:04:25;8.90;65.70
71563;DHT22;59391;52.504;13.438;2024-02-04T06:06:50;8.90;65.70
71563;DHT22;59391;52.504;13.438;2024-02-04T06:09:16;8.90;65.60
71563;DHT22;59391;52.504;13.438;2024-02-04T06:11:45;8.90;65.40
71563;DHT22;59391;52.504;13.438;2024-02-04T06:14:13;8.90;65.60
71563;DHT22;59391;52.504;13.438;2024-02-04T06:16:38;8.90;65.60
71563;DHT22;59391;52.504;13.438;2024-02-04T06:19:04;8.90;65.60
71563;DHT22;59391;52.504;13.438;2024-02-04T06:21:30;9.00;65.60
71563;DHT22;59391;52.504;13.438;2024-02-04T06:23:56;8.90;65.70
71563;DHT22;59391;52.504;13.438;2024-02-04T06:26:22;9.00;65.60
71563;DHT22;59391;52.504;13.438;2024-02-04T06:28:47;9.00;65.50
71563;DHT22;59391;52.504;13.438;2024-02-04T06:31:14;9.00;65.60
71563;DHT22;59391;52.504;13.438;2024-02-04T06:33:40;9.00;65.60
71563;DHT22;59391;52.504;13.438;2024-02-04T06:36:09;9.00;65.50
71563;DHT22;59391;52.504;13.438;2024-02-04T06:38:35;9.00;65.50
71563;DHT22;59391;52.504;13.438;2024-02-04T06:41:01;9.10;65.70
71563;DHT22;59391;52.504;13.438;2024-02-04T06:43:27;9.00;65.70
71563;DHT22;59391;52.504;13.438;2024-02-04T06:45:52;9.00;65.80
71563;DHT22;59391;52.504;13.438;2024-02-04T06:48:21;9.10;65.90
71563;DHT22;59391;52.504;13.438;2024-02-04T06:50:46;9.10;66.00
71563;DHT22;59391;52.504;13.438;2024-02-04T06:53:13;9.10;66.20
71563;DHT22;59391;52.504;13.438;2024-02-04T06:55:39;9.10;66.30
71563;DHT22;59391;52.504;13.438;2024-02-04T06:58:05;9.10;66.50
71563;DHT22;59391;52.504;13.438;2024-02-04T07:00:31;9.10;66.60
71563;DHT22;59391;52.504;13.438;2024-02-04T07:02:57;9.10;66.70
71563;DHT22;59391;52.504;13.438;2024-02-04T07:05:22;9.10;66.90
71563;DHT22;59391;52.504;13.438;2024-02-04T07:07:49;9.10;66.90
71563;DHT22;59391;52.504;13.438;2024-02-04T07:10:15;9.10;67.10
71563;DHT22;59391;52.504;13.438;2024-02-04T07:12:42;9.10;67.20
71563;DHT22;59391;52.504;13.438;2024-02-04T07:15:08;9.00;67.20
71563;DHT22;59391;52.504;13.438;2024-02-04T07:17:34;9.10;67.20
71563;DHT22;59391;52.504;13.438;2024-02-04T07:20:01;9.10;67.10
71563;DHT22;59391;52.504;13.438;2024-02-04T07:22:27;9.10;67.10
71563;DHT22;59391;52.504;13.438;2024-02-04T07:24:53;9.10;67.00
71563;DHT22;59391;52.504;13.438;2024-02-04T07:27:19;9.00;67.20
71563;DHT22;59391;52.504;13.438;2024-02-04T07:29:44;9.10;67.00
71563;DHT22;59391;52.504;13.438;2024-02-04T07:32:15;9.10;67.00
71563;DHT22;59391;52.504;13.438;2024-02-04T07:34:41;9.10;66.90
71563;DHT22;59391;52.504;13.438;2024-02-04T07:37:06;9.10;67.00
71563;DHT22;59391;52.504;13.438;2024-02-04T07:39:32;9.10;66.90
71563;DHT22;59391;52.504;13.438;2024-02-04T07:41:58;9.20;66.60
71563;DHT22;59391;52.504;13.438;2024-02-04T07:44:29;9.20;66.60
71563;DHT22;59391;52.504;13.438;2024-02-04T07:46:55;9.20;66.70
71563;DHT22;59391;52.504;13.438;2024-02-04T07:49:20;9.20;66.40
71563;DHT22;59391;52.504;13.438;2024-02-04T07:51:46;9.20;66.20
71563;DHT22;59391;52.504;13.438;2024-02-04T07:54:12;9.20;66.20
71563;DHT22;59391;52.504;13.438;2024-02-04T07:56:38;9.20;66.00
71563;DHT22;59391;52.504;13.438;2024-02-04T07:59:04;9.20;66.30
71563;DHT22;59391;52.504;13.438;2024-02-04T08:01:30;9.30;66.20
71563;DHT22;59391;52.504;13.438;2024-02-04T08:03:56;9.30;66.20
71563;DHT22;59391;52.504;13.438;2024-02-04T08:06:21;9.40;65.80
71563;DHT22;59391;52.504;13.438;2024-02-04T08:08:47;9.40;65.90
71563;DHT22;59391;52.504;13.438;2024-02-04T08:11:17;9.40;65.70
71563;DHT22;59391;52.504;13.438;2024-02-04T08:13:46;9.50;65.80
71563;DHT22;59391;52.504;13.438;2024-02-04T08:16:12;9.40;65.80
71563;DHT22;59391;52.504;13.438;2024-02-04T08:18:39;9.50;65.70
71563;DHT22;59391;52.504;13.438;2024-02-04T08:21:05;9.50;65.60
71563;DHT22;59391;52.504;13.438;2024-02-04T08:23:30;9.50;65.40
71563;DHT22;59391;52.504;13.438;2024-02-04T08:25:56;9.60;65.30
71563;DHT22;59391;52.504;13.438;2024-02-04T08:28:23;9.60;65.10
71563;DHT22;59391;52.504;13.438;2024-02-04T08:30:49;9.70;64.70
71563;DHT22;59391;52.504;13.438;2024-02-04T08:33:15;9.70;64.50
71563;DHT22;59391;52.504;13.438;2024-02-04T08:35:41;9.70;64.20
71563;DHT22;59391;52.504;13.438;2024-02-04T08:38:06;9.80;64.10
71563;DHT22;59391;52.504;13.438;2024-02-04T08:40:32;9.80;63.20
71563;DHT22;59391;52.504;13.438;2024-02-04T08:42:58;9.80;63.40
71563;DHT22;59391;52.504;13.438;2024-02-04T08:45:24;9.90;63.00
71563;DHT22;59391;52.504;13.438;2024-02-04T08:47:49;9.90;62.90
71563;DHT22;59391;52.504;13.438;2024-02-04T08:50:15;9.90;62.70
71563;DHT22;59391;52.504;13.438;2024-02-04T08:52:41;9.90;62.70
71563;DHT22;59391;52.504;13.438;2024-02-04T08:55:06;9.90;62.30
71563;DHT22;59391;52.504;13.438;2024-02-04T08:57:32;9.90;62.10
71563;DHT22;59391;52.504;13.438;2024-02-04T08:59:58;10.00;62.00
71563;DHT22;59391;52.504;13.438;2024-02-04T09:02:23;10.00;61.80
71563;DHT22;59391;52.504;13.438;2024-02-04T09:04:49;9.90;61.70
71563;DHT22;59391;52.504;13.438;2024-02-04T09:07:15;9.90;61.80
71563;DHT22;59391;52.504;13.438;2024-02-04T09:09:40;9.90;61.60
71563;DHT22;59391;52.504;13.438;2024-02-04T09:12:09;9.90;61.60
71563;DHT22;59391;52.504;13.438;2024-02-04T09:14:35;9.90;61.50
71563;DHT22;59391;52.504;13.438;2024-02-04T09:17:06;9.90;61.80
71563;DHT22;59391;52.504;13.438;2024-02-04T09:19:32;10.00;61.60
71563;DHT22;59391;52.504;13.438;2024-02-04T09:21:58;10.00;61.00
71563;DHT22;59391;52.504;13.438;2024-02-04T09:24:27;10.00;61.30
71563;DHT22;59391;52.504;13.438;2024-02-04T09:26:53;10.00;61.10
71563;DHT22;59391;52.504;13.438;2024-02-04T09:29:19;10.10;61.20
71563;DHT22;59391;52.504;13.438;2024-02-04T09:31:45;10.10;61.30
71563;DHT22;59391;52.504;13.438;2024-02-04T09:34:11;10.10;61.00
71563;DHT22;59391;52.504;13.438;2024-02-04T09:36:37;10.20;60.70
71563;DHT22;59391;52.504;13.438;2024-02-04T09:39:02;10.20;60.30
71563;DHT22;59391;52.504;13.438;2024-02-04T09:41:29;10.20;60.40
71563;DHT22;59391;52.504;13.438;2024-02-04T09:43:55;10.20;60.30
71563;DHT22;59391;52.504;13.438;2024-02-04T09:46:23;10.30;59.50
71563;DHT22;59391;52.504;13.438;2024-02-04T09:48:49;10.30;59.70
71563;DHT22;59391;52.504;13.438;2024-02-04T09:51:16;10.40;59.40
71563;DHT22;59391;52.504;13.438;2024-02-04T09:53:45;10.40;59.20
71563;DHT22;59391;52.504;13.438;2024-02-04T09:56:12;10.50;58.80
71563;DHT22;59391;52.504;13.438;2024-02-04T09:58:39;10.50;58.30
71563;DHT22;59391;52.504;13.438;2024-02-04T10:01:05;10.50;58.40
71563;DHT22;59391;52.504;13.438;2024-02-04T10:03:33;10.50;58.20
71563;DHT22;59391;52.504;13.438;2024-02-04T10:05:58;10.60;58.00
71563;DHT22;59391;52.504;13.438;2024-02-04T10:08:24;10.70;57.40
71563;DHT22;59391;52.504;13.438;2024-02-04T10:10:50;10.70;56.80
71563;DHT22;59391;52.504;13.438;2024-02-04T10:13:16;10.70;57.50
71563;DHT22;59391;52.504;13.438;2024-02-04T10:15:46;10.70;57.10
71563;DHT22;59391;52.504;13.438;2024-02-04T10:18:13;10.80;56.50
71563;DHT22;59391;52.504;13.438;2024-02-04T10:20:38;10.80;56.60
71563;DHT22;59391;52.504;13.438;2024-02-04T10:23:04;10.80;56.20
71563;DHT22;59391;52.504;13.438;2024-02-04T10:25:30;10.80;55.90
71563;DHT22;59391;52.504;13.438;2024-02-04T10:27:57;10.80;56.20
71563;DHT22;59391;52.504;13.438;2024-02-04T10:30:23;10.90;56.00
71563;DHT22;59391;52.504;13.438;2024-02-04T10:32:53;10.90;55.20
71563;DHT22;59391;52.504;13.438;2024-02-04T10:35:23;11.00;55.50
71563;DHT22;59391;52.504;13.438;2024-02-04T10:37:52;11.00;55.50
71563;DHT22;59391;52.504;13.438;2024-02-04T10:40:18;11.20;54.70
71563;DHT22;59391;52.504;13.438;2024-02-04T10:42:45;11.10;54.50
71563;DHT22;59391;52.504;13.438;2024-02-04T10:45:11;11.10;54.60
71563;DHT22;59391;52.504;13.438;2024-02-04T10:47:40;11.10;54.40
71563;DHT22;59391;52.504;13.438;2024-02-04T10:50:06;11.20;54.30
71563;DHT22;59391;52.504;13.438;2024-02-04T10:52:37;11.20;54.30
71563;DHT22;59391;52.504;13.438;2024-02-04T10:55:17;11.30;54.30
71563;DHT22;59391;52.504;13.438;2024-02-04T10:57:51;11.30;54.10
71563;DHT22;59391;52.504;13.438;2024-02-04T11:00:17;11.20;53.80
71563;DHT22;59391;52.504;13.438;2024-02-04T11:02:46;11.20;53.80
71563;DHT22;59391;52.504;13.438;2024-02-04T11:05:15;11.20;54.00
71563;DHT22;59391;52.504;13.438;2024-02-04T11:07:43;11.20;53.80
71563;DHT22;59391;52.504;13.438;2024-02-04T11:10:10;11.20;53.80
71563;DHT22;59391;52.504;13.438;2024-02-04T11:12:38;11.20;53.90
71563;DHT22;59391;52.504;13.438;2024-02-04T11:15:09;11.10;53.90
71563;DHT22;59391;52.504;13.438;2024-02-04T11:26:32;11.20;53.60
71563;DHT22;59391;52.504;13.438;2024-02-04T11:28:58;11.10;53.40
71563;DHT22;59391;52.504;13.438;2024-02-04T11:31:28;11.20;53.40
71563;DHT22;59391;52.504;13.438;2024-02-04T11:33:55;11.10;53.80
71563;DHT22;59391;52.504;13.438;2024-02-04T11:36:24;11.10;53.90
71563;DHT22;59391;52.504;13.438;2024-02-04T11:38:51;11.10;54.00
71563;DHT22;59391;52.504;13.438;2024-02-04T11:41:24;11.10;53.80
71563;DHT22;59391;52.504;13.438;2024-02-04T11:43:56;11.00;54.10
71563;DHT22;59391;52.504;13.438;2024-02-04T11:46:22;11.10;53.90
71563;DHT22;59391;52.504;13.438;2024-02-04T11:48:54;11.10;53.40
71563;DHT22;59391;52.504;13.438;2024-02-04T11:51:23;11.10;53.60
71563;DHT22;59391;52.504;13.438;2024-02-04T11:53:50;11.10;53.40
71563;DHT22;59391;52.504;13.438;2024-02-04T11:56:24;11.00;53.10
71563;DHT22;59391;52.504;13.438;2024-02-04T11:58:50;11.00;53.20
71563;DHT22;59391;52.504;13.438;2024-02-04T12:01:17;11.00;53.60
71563;DHT22;59391;52.504;13.438;2024-02-04T12:03:42;11.00;53.30
71563;DHT22;59391;52.504;13.438;2024-02-04T12:06:08;11.00;53.20
71563;DHT22;59391;52.504;13.438;2024-02-04T12:08:35;11.00;53.40
71563;DHT22;59391;52.504;13.438;2024-02-04T12:11:03;11.10;53.10
71563;DHT22;59391;52.504;13.438;2024-02-04T12:13:30;11.10;52.70
71563;DHT22;59391;52.504;13.438;2024-02-04T12:15:57;11.10;52.90
71563;DHT22;59391;52.504;13.438;2024-02-04T12:18:23;11.20;52.90
71563;DHT22;59391;52.504;13.438;2024-02-04T12:20:49;11.20;52.60
71563;DHT22;59391;52.504;13.438;2024-02-04T12:23:15;11.20;52.50
71563;DHT22;59391;52.504;13.438;2024-02-04T12:25:41;11.30;52.10
71563;DHT22;59391;52.504;13.438;2024-02-04T12:28:08;11.20;52.00
71563;DHT22;59391;52.504;13.438;2024-02-04T12:30:34;11.30;52.10
71563;DHT22;59391;52.504;13.438;2024-02-04T12:33:03;11.20;52.40
71563;DHT22;59391;52.504;13.438;2024-02-04T12:35:31;11.20;52.70
71563;DHT22;59391;52.504;13.438;2024-02-04T12:37:58;11.10;52.70
71563;DHT22;59391;52.504;13.438;2024-02-04T12:40:28;11.10;52.60
71563;DHT22;59391;52.504;13.438;2024-02-04T12:43:00;11.00;52.50
71563;DHT22;59391;52.504;13.438;2024-02-04T12:45:27;11.00;52.50
71563;DHT22;59391;52.504;13.438;2024-02-04T12:47:57;10.90;52.40
71563;DHT22;59391;52.504;13.438;2024-02-04T12:50:24;10.90;52.40
71563;DHT22;59391;52.504;13.438;2024-02-04T12:53:03;10.90;52.20
71563;DHT22;59391;52.504;13.438;2024-02-04T12:55:34;11.00;51.90
71563;DHT22;59391;52.504;13.438;2024-02-04T12:58:05;10.90;51.90
71563;DHT22;59391;52.504;13.438;2024-02-04T13:00:37;10.90;52.30
71563;DHT22;59391;52.504;13.438;2024-02-04T13:03:05;10.90;52.10
71563;DHT22;59391;52.504;13.438;2024-02-04T13:05:33;10.90;51.80
71563;DHT22;59391;52.504;13.438;2024-02-04T13:08:00;10.90;51.40
71563;DHT22;59391;52.504;13.438;2024-02-04T13:10:35;10.90;51.50
71563;DHT22;59391;52.504;13.438;2024-02-04T13:15:31;10.90;51.50
71563;DHT22;59391;52.504;13.438;2024-02-04T13:17:58;10.90;51.70
71563;DHT22;59391;52.504;13.438;2024-02-04T13:20:25;10.90;51.80
71563;DHT22;59391;52.504;13.438;2024-02-04T13:22:51;10.90;51.50
71563;DHT22;59391;52.504;13.438;2024-02-04T13:25:20;10.80;51.80
71563;DHT22;59391;52.504;13.438;2024-02-04T13:27:47;10.80;52.00
71563;DHT22;59391;52.504;13.438;2024-02-04T13:30:22;10.90;51.60
71563;DHT22;59391;52.504;13.438;2024-02-04T13:32:48;10.90;51.90
71563;DHT22;59391;52.504;13.438;2024-02-04T13:35:14;10.90;52.10
71563;DHT22;59391;52.504;13.438;2024-02-04T13:37:43;10.90;52.10
71563;DHT22;59391;52.504;13.438;2024-02-04T13:40:19;10.90;52.00
71563;DHT22;59391;52.504;13.438;2024-02-04T13:42:46;10.90;51.80
71563;DHT22;59391;52.504;13.438;2024-02-04T13:45:12;10.90;51.80
71563;DHT22;59391;52.504;13.438;2024-02-04T13:47:42;10.90;51.80
71563;DHT22;59391;52.504;13.438;2024-02-04T13:50:09;10.80;52.10
71563;DHT22;59391;52.504;13.438;2024-02-04T13:52:35;10.80;52.40
71563;DHT22;59391;52.504;13.438;2024-02-04T13:55:02;10.80;52.40
71563;DHT22;59391;52.504;13.438;2024-02-04T13:57:30;10.90;52.30
71563;DHT22;59391;52.504;13.438;2024-02-04T13:59:57;10.90;52.20
71563;DHT22;59391;52.504;13.438;2024-02-04T14:02:23;10.90;52.00
71563;DHT22;59391;52.504;13.438;2024-02-04T14:04:50;10.80;52.20
71563;DHT22;59391;52.504;13.438;2024-02-04T14:07:16;10.90;52.40
71563;DHT22;59391;52.504;13.438;2024-02-04T14:09:42;10.90;52.50
71563;DHT22;59391;52.504;13.438;2024-02-04T14:12:07;10.90;52.30
71563;DHT22;59391;52.504;13.438;2024-02-04T14:14:33;10.90;52.60
71563;DHT22;59391;52.504;13.438;2024-02-04T14:16:59;10.90;52.60
71563;DHT22;59391;52.504;13.438;2024-02-04T14:19:25;10.90;52.80
71563;DHT22;59391;52.504;13.438;2024-02-04T14:21:51;10.90;52.80
71563;DHT22;59391;52.504;13.438;2024-02-04T14:24:16;10.90;52.80
71563;DHT22;59391;52.504;13.438;2024-02-04T14:26:42;10.90;53.00
71563;DHT22;59391;52.504;13.438;2024-02-04T14:29:18;10.90;53.00
71563;DHT22;59391;52.504;13.438;2024-02-04T14:31:44;10.90;53.10
71563;DHT22;59391;52.504;13.438;2024-02-04T14:34:12;10.90;53.30
71563;DHT22;59391;52.504;13.438;2024-02-04T14:36:38;10.90;53.40
71563;DHT22;59391;52.504;13.438;2024-02-04T14:39:03;10.90;53.40
71563;DHT22;59391;52.504;13.438;2024-02-04T14:41:31;10.90;53.50
71563;DHT22;59391;52.504;13.438;2024-02-04T14:43:59;10.90;53.80
71563;DHT22;59391;52.504;13.438;2024-02-04T14:46:25;10.90;53.60
71563;DHT22;59391;52.504;13.438;2024-02-04T14:48:50;10.80;53.80
71563;DHT22;59391;52.504;13.438;2024-02-04T14:51:17;10.80;54.10
71563;DHT22;59391;52.504;13.438;2024-02-04T14:53:43;10.80;54.00
71563;DHT22;59391;52.504;13.438;2024-02-04T14:56:09;10.90;54.00
71563;DHT22;59391;52.504;13.438;2024-02-04T14:58:36;10.90;54.20
71563;DHT22;59391;52.504;13.438;2024-02-04T15:01:02;10.90;54.20
71563;DHT22;59391;52.504;13.438;2024-02-04T15:03:28;10.90;54.10
71563;DHT22;59391;52.504;13.438;2024-02-04T15:05:54;11.00;53.80
71563;DHT22;59391;52.504;13.438;2024-02-04T15:08:19;10.90;53.90
71563;DHT22;59391;52.504;13.438;2024-02-04T15:10:46;10.90;54.00
71563;DHT22;59391;52.504;13.438;2024-02-04T15:13:12;10.90;54.00
71563;DHT22;59391;52.504;13.438;2024-02-04T15:15:38;10.90;54.00
71563;DHT22;59391;52.504;13.438;2024-02-04T15:18:04;10.90;53.90
71563;DHT22;59391;52.504;13.438;2024-02-04T15:20:30;10.90;54.10
71563;DHT22;59391;52.504;13.438;2024-02-04T15:22:57;10.80;54.30
71563;DHT22;59391;52.504;13.438;2024-02-04T15:25:25;10.90;54.20
71563;DHT22;59391;52.504;13.438;2024-02-04T15:27:52;10.80;54.20
71563;DHT22;59391;52.504;13.438;2024-02-04T15:30:20;10.80;54.30
71563;DHT22;59391;52.504;13.438;2024-02-04T15:32:46;10.90;54.30